Time;durP1;ratioP1;P1;durP2;ratioP2;P2;SDS_P1;SDS_P2;PMS_P1;PMS_P2;Temp;Humidity;BMP_temperature;BMP_pressure;BME280_temperature;BME280_humidity;BME280_pressure;Samples;Min_cycle;Max_cycle;Signal;HPM_P1;HPM_P2
2022/05/21 00:01:11;;;;;;;8.38;2.92;;;;;;;14.41;27.18;99113.53;4957059;28;20069;-70
2022/05/21 00:03:36;;;;;;;6.22;2.75;;;;;;;14.36;27.08;99113.31;4972964;28;20503;-70
2022/05/21 00:06:02;;;;;;;5.72;2.70;;;;;;;14.26;27.12;99102.13;4973848;28;20195;-70
2022/05/21 00:08:28;;;;;;;7.93;2.80;;;;;;;14.25;27.47;99108.50;4976667;28;20070;-70
2022/05/21 00:10:54;;;;;;;8.48;2.75;;;;;;;14.25;27.85;99109.31;4976320;28;20527;-70
2022/05/21 00:13:22;;;;;;;9.02;3.13;;;;;;;14.23;27.49;99110.50;4960525;28;20172;-71
2022/05/21 00:15:47;;;;;;;12.00;3.05;;;;;;;14.14;27.61;99117.84;4976404;28;20129;-70
2022/05/21 00:18:13;;;;;;;17.20;4.60;;;;;;;14.10;29.30;99116.53;4959964;28;20101;-70
2022/05/21 00:20:48;;;;;;;9.82;3.25;;;;;;;14.11;28.12;99112.03;4992535;28;20042;-69
2022/05/21 00:23:34;;;;;;;10.02;2.90;;;;;;;14.33;28.40;99114.50;4976272;28;20053;-70
2022/05/21 00:26:04;;;;;;;4.85;2.90;;;;;;;14.25;28.33;99111.16;4960548;28;20042;-70
2022/05/21 00:28:30;;;;;;;6.45;2.90;;;;;;;14.12;28.54;99121.69;4960128;28;20042;-70
2022/05/21 00:30:56;;;;;;;7.50;3.20;;;;;;;14.06;28.57;99107.28;4976107;28;20466;-69
2022/05/21 00:33:23;;;;;;;4.80;2.80;;;;;;;14.06;28.46;99101.09;4960095;28;20100;-70
2022/05/21 00:35:49;;;;;;;7.82;2.88;;;;;;;14.06;28.59;99103.78;4976228;28;20045;-70
2022/05/21 00:38:15;;;;;;;7.20;3.05;;;;;;;14.12;28.36;99103.00;4928158;28;20112;-70
2022/05/21 00:40:41;;;;;;;6.63;3.08;;;;;;;13.90;28.71;99072.84;4992345;28;20484;-70
2022/05/21 00:43:07;;;;;;;6.30;2.80;;;;;;;14.04;28.65;99081.81;4992187;28;20061;-70
2022/05/21 00:45:33;;;;;;;11.52;3.03;;;;;;;14.06;28.51;99096.59;4993232;28;20046;-70
2022/05/21 00:47:59;;;;;;;5.00;2.75;;;;;;;14.03;28.58;99085.47;4959713;28;20105;-70
2022/05/21 00:50:29;;;;;;;10.73;3.60;;;;;;;14.53;28.59;99085.25;4993409;28;20371;-70
2022/05/21 00:52:55;;;;;;;6.43;3.40;;;;;;;14.43;28.37;99098.13;4991801;28;20045;-70
2022/05/21 00:55:29;;;;;;;8.15;2.88;;;;;;;14.59;28.56;99095.97;4959525;28;20718;-69
2022/05/21 01:00:43;;;;;;;8.68;3.88;;;;;;;14.18;28.55;99062.16;4961956;28;20049;-70
2022/05/21 01:03:09;;;;;;;5.35;2.95;;;;;;;14.45;28.04;99088.09;4959418;28;20570;-70
2022/05/21 01:05:36;;;;;;;5.47;3.10;;;;;;;14.35;28.28;99084.91;4975902;28;20101;-70
2022/05/21 01:08:03;;;;;;;8.52;3.63;;;;;;;14.42;28.31;99083.94;4975720;28;20137;-70
2022/05/21 01:10:33;;;;;;;8.27;3.20;;;;;;;14.54;28.31;99078.88;4975389;28;20050;-70
2022/05/21 01:13:02;;;;;;;10.10;3.15;;;;;;;14.44;28.32;99063.19;4991533;28;20473;-70
2022/05/21 01:15:31;;;;;;;8.35;3.28;;;;;;;14.31;28.52;99052.44;4991515;28;20467;-70
2022/05/21 01:17:56;;;;;;;8.82;3.17;;;;;;;14.24;28.60;99078.28;4958900;28;20137;-70
2022/05/21 01:20:37;;;;;;;5.13;2.80;;;;;;;14.56;28.33;99087.53;4943244;28;20521;-70
2022/05/21 01:23:03;;;;;;;7.75;2.90;;;;;;;14.31;28.30;99086.34;4975567;28;20065;-70
2022/05/21 01:25:31;;;;;;;7.13;2.90;;;;;;;14.14;28.67;99064.41;4975289;28;20061;-70
2022/05/21 01:27:58;;;;;;;8.07;2.58;;;;;;;14.30;28.03;99085.50;4991471;28;20165;-70
2022/05/21 01:30:32;;;;;;;6.00;2.92;;;;;;;14.54;28.14;99086.91;4992399;28;20127;-71
2022/05/21 01:32:58;;;;;;;12.35;3.20;;;;;;;14.32;27.95;99085.31;4991143;28;20257;-70
2022/05/21 01:35:23;;;;;;;10.15;3.10;;;;;;;14.35;28.15;99083.09;4975081;28;20046;-70
2022/05/21 01:37:49;;;;;;;6.95;3.25;;;;;;;14.39;28.07;99081.66;4975403;28;20042;-70
2022/05/21 01:40:17;;;;;;;6.07;3.05;;;;;;;14.50;27.98;99067.75;4975175;28;20072;-70
2022/05/21 01:42:43;;;;;;;11.25;3.85;;;;;;;14.56;28.30;99098.22;4974852;28;20507;-70
2022/05/21 01:45:10;;;;;;;12.13;4.20;;;;;;;14.47;28.72;99056.63;4990963;28;20057;-70
2022/05/21 01:47:41;;;;;;;10.50;4.03;;;;;;;14.64;28.20;99088.19;4958688;28;20042;-71
2022/05/21 01:50:07;;;;;;;;;;;;;;;14.89;28.39;99080.50;4991407;28;20100;-70
2022/05/21 01:52:33;;;;;;;14.15;4.78;;;;;;;14.50;28.50;99070.44;4974119;28;19925;-70
2022/05/21 01:54:59;;;;;;;11.85;4.55;;;;;;;14.63;28.36;99080.38;4990416;28;20904;-70
2022/05/21 01:57:24;;;;;;;13.40;4.00;;;;;;;14.58;28.22;99085.47;4974247;28;20523;-70
2022/05/21 01:59:50;;;;;;;17.55;5.38;;;;;;;14.63;28.51;99077.69;4974443;28;20043;-70
2022/05/21 02:02:16;;;;;;;20.80;5.85;;;;;;;14.82;28.85;99083.16;4974044;28;20420;-70
2022/05/21 02:04:42;;;;;;;18.77;6.07;;;;;;;14.75;28.69;99084.97;4990633;28;20137;-70
2022/05/21 02:07:07;;;;;;;18.65;6.72;;;;;;;14.75;28.74;99068.09;4974392;28;20173;-70
2022/05/21 02:09:33;;;;;;;16.58;6.45;;;;;;;14.84;28.39;99074.94;4990329;28;20054;-70
2022/05/21 02:12:00;;;;;;;26.27;6.30;;;;;;;14.83;27.65;99084.81;4974246;28;20053;-70
2022/05/21 02:14:27;;;;;;;20.13;7.20;;;;;;;14.93;28.48;99060.34;4991472;28;20502;-71
2022/05/21 02:16:55;;;;;;;21.50;7.60;;;;;;;14.97;28.93;99058.97;4941988;28;20077;-70
2022/05/21 02:19:20;;;;;;;22.50;7.50;;;;;;;15.14;29.09;99078.97;4990226;28;20060;-70
2022/05/21 02:21:46;;;;;;;18.13;7.00;;;;;;;15.23;28.35;99086.63;4973827;28;20443;-70
2022/05/21 02:24:13;;;;;;;22.83;7.78;;;;;;;15.08;28.77;99079.78;4958114;28;20038;-70
2022/05/21 02:26:39;;;;;;;26.95;9.68;;;;;;;15.20;28.93;99062.13;4957945;28;20042;-70
2022/05/21 02:29:07;;;;;;;26.52;9.13;;;;;;;15.36;29.05;99074.31;5005920;28;20137;-70
2022/05/21 02:31:33;;;;;;;26.15;9.57;;;;;;;15.19;29.38;99079.22;4990095;28;20042;-70
2022/05/21 02:33:59;;;;;;;33.17;9.15;;;;;;;15.32;29.32;99084.59;4989773;28;20136;-70
2022/05/21 02:41:54;;;;;;;25.15;11.02;;;;;;;15.38;29.41;99086.47;4990200;28;20050;-70
2022/05/21 02:44:20;;;;;;;24.45;9.60;;;;;;;15.28;29.28;99091.38;4990061;28;20061;-70
2022/05/21 02:46:47;;;;;;;28.42;9.15;;;;;;;15.36;29.16;99087.69;4973972;28;20065;-70
2022/05/21 02:49:13;;;;;;;21.05;8.25;;;;;;;15.31;28.96;99082.09;4991201;28;20054;-70
2022/05/21 02:51:39;;;;;;;21.23;8.35;;;;;;;15.29;29.05;99076.97;4991433;28;20522;-70
2022/05/21 02:54:06;;;;;;;18.10;7.78;;;;;;;14.93;29.21;99050.50;4973511;28;20112;-70
2022/05/21 02:56:36;;;;;;;18.70;8.50;;;;;;;15.31;29.09;99082.94;4990132;28;20584;-70
2022/05/21 02:59:06;;;;;;;18.50;8.60;;;;;;;15.33;29.38;99083.53;4974929;28;20042;-71
2022/05/21 03:01:33;;;;;;;18.88;7.38;;;;;;;15.19;29.14;99082.69;4974368;28;20050;-70
2022/05/21 03:04:00;;;;;;;23.13;8.55;;;;;;;15.33;29.15;99077.38;4989945;28;20117;-70
2022/05/21 03:06:26;;;;;;;18.23;7.63;;;;;;;15.18;29.16;99082.88;4990003;28;20070;-70
2022/05/21 03:11:35;;;;;;;21.20;7.45;;;;;;;15.08;29.29;99085.13;4990712;28;20046;-70
2022/05/21 03:14:01;;;;;;;27.67;8.32;;;;;;;15.12;29.68;99075.66;4973453;28;20049;-70
2022/05/21 03:16:27;;;;;;;26.80;8.50;;;;;;;15.12;29.89;99073.00;4941400;28;20042;-70
2022/05/21 03:18:52;;;;;;;18.58;8.38;;;;;;;15.00;29.57;99077.28;4957298;28;20500;-70
2022/05/21 03:21:19;;;;;;;15.30;8.10;;;;;;;14.93;29.72;99063.88;4989727;28;20052;-71
2022/05/21 03:23:45;;;;;;;15.10;7.15;;;;;;;14.93;29.55;99068.38;4957298;28;20137;-70
2022/05/21 03:26:10;;;;;;;20.67;7.20;;;;;;;14.92;29.59;99070.25;4991106;28;20054;-70
2022/05/21 03:28:36;;;;;;;20.52;7.38;;;;;;;14.92;29.48;99066.75;4957226;28;20064;-70
2022/05/21 03:31:02;;;;;;;20.92;7.75;;;;;;;14.90;29.28;99060.75;4957822;28;20042;-70
2022/05/21 03:33:28;;;;;;;22.95;7.32;;;;;;;14.87;29.31;99063.81;4973431;28;20106;-70
2022/05/21 03:35:53;;;;;;;23.80;7.00;;;;;;;14.89;29.29;99062.63;4957586;28;20512;-70
2022/05/21 03:38:19;;;;;;;16.95;6.88;;;;;;;14.94;29.35;99059.34;4989519;28;20140;-69
2022/05/21 03:40:45;;;;;;;23.58;6.20;;;;;;;15.00;29.23;99061.22;4957737;28;20050;-70
2022/05/21 03:43:11;;;;;;;26.50;7.88;;;;;;;14.96;29.04;99066.13;4977199;28;20503;-70
2022/05/21 03:45:36;;;;;;;26.35;6.63;;;;;;;14.94;28.97;99060.19;4976924;28;20100;-70
2022/05/21 03:48:05;;;;;;;33.50;7.28;;;;;;;15.17;28.88;99071.38;4976934;28;20061;-70
2022/05/21 03:50:32;;;;;;;29.35;6.90;;;;;;;15.26;29.08;99061.31;4994499;28;20042;-70
2022/05/21 03:53:01;;;;;;;25.02;6.38;;;;;;;15.11;28.53;99034.72;4976244;28;20046;-70
2022/05/21 03:55:27;;;;;;;21.67;5.70;;;;;;;15.19;28.61;99063.16;5009056;28;20421;-70
2022/05/21 03:57:53;;;;;;;29.45;6.75;;;;;;;15.29;28.21;99060.91;4993962;28;20046;-70
2022/05/21 04:00:20;;;;;;;18.73;5.80;;;;;;;15.40;28.10;99038.13;4976230;28;20471;-70
2022/05/21 04:02:46;;;;;;;24.90;5.60;;;;;;;15.31;28.12;99029.44;4992832;28;20050;-69
2022/05/21 04:05:13;;;;;;;18.58;4.75;;;;;;;15.62;27.41;99045.75;4992786;28;20159;-70
2022/05/21 04:07:39;;;;;;;17.50;5.68;;;;;;;15.36;27.58;99034.97;4960073;28;20042;-70
2022/05/21 04:10:07;;;;;;;13.50;4.97;;;;;;;15.81;27.21;99070.91;4976318;28;20389;-70
2022/05/21 04:12:32;;;;;;;13.73;4.38;;;;;;;15.76;26.86;99063.47;4992315;28;20046;-70
2022/05/21 04:14:58;;;;;;;12.90;3.75;;;;;;;15.74;26.44;99068.25;4976297;28;20043;-70
2022/05/21 04:17:24;;;;;;;14.45;4.03;;;;;;;15.82;26.29;99062.66;4975986;28;20129;-70
2022/05/21 04:19:49;;;;;;;7.68;3.65;;;;;;;15.85;26.58;99066.81;4960116;28;20530;-70
2022/05/21 04:22:15;;;;;;;9.18;3.60;;;;;;;15.84;26.12;99043.72;4993258;28;20137;-70
2022/05/21 04:24:41;;;;;;;14.68;3.80;;;;;;;16.03;25.89;99061.66;4993054;28;20046;-70
2022/05/21 04:27:09;;;;;;;13.70;4.15;;;;;;;16.00;25.60;99060.22;4977288;28;20382;-69
2022/05/21 04:29:36;;;;;;;17.70;3.70;;;;;;;15.89;25.69;99030.53;4945530;28;20038;-70
2022/05/21 04:32:04;;;;;;;9.82;3.50;;;;;;;16.08;25.55;99056.50;4960572;28;20141;-70
2022/05/21 04:34:30;;;;;;;8.40;3.45;;;;;;;16.20;25.41;99054.84;4960757;28;20050;-70
2022/05/21 04:36:56;;;;;;;10.27;3.53;;;;;;;15.90;25.20;99027.66;4976526;28;20133;-69
2022/05/21 04:39:21;;;;;;;9.38;3.55;;;;;;;16.18;25.52;99030.94;4993003;28;20042;-70
2022/05/21 04:41:47;;;;;;;13.95;3.78;;;;;;;16.34;25.25;99043.91;4960751;28;20044;-70
2022/05/21 04:44:13;;;;;;;8.90;3.15;;;;;;;16.55;25.09;99048.19;4976686;28;20058;-70
2022/05/21 04:46:39;;;;;;;7.50;2.90;;;;;;;16.60;25.03;99027.78;4960321;28;20054;-70
2022/05/21 04:49:04;;;;;;;15.65;3.15;;;;;;;16.73;25.13;99040.31;4959848;28;20109;-70
2022/05/21 04:51:32;;;;;;;20.48;4.75;;;;;;;16.97;24.78;99036.09;4975838;28;20038;-70
2022/05/21 04:53:58;;;;;;;10.85;2.78;;;;;;;16.90;24.68;99043.34;4960220;28;20054;-70
2022/05/21 04:56:23;;;;;;;10.50;2.72;;;;;;;16.88;23.87;99039.00;4960544;28;20038;-70
2022/05/21 04:58:49;;;;;;;6.88;2.13;;;;;;;16.65;23.24;99037.88;4976755;28;20050;-72
2022/05/21 05:01:15;;;;;;;6.45;2.35;;;;;;;16.75;23.84;99044.44;4976593;28;20045;-70
2022/05/21 05:03:40;;;;;;;10.18;2.78;;;;;;;16.51;23.73;99042.44;4959850;28;20057;-70
2022/05/21 05:06:06;;;;;;;6.15;2.60;;;;;;;16.46;24.04;99031.53;4975931;28;20038;-70
2022/05/21 05:08:39;;;;;;;9.13;3.58;;;;;;;16.57;24.23;99019.34;4959443;28;20442;-70
2022/05/21 05:11:06;;;;;;;6.57;3.00;;;;;;;16.92;23.88;99026.00;4976524;28;20417;-70
2022/05/21 05:13:32;;;;;;;6.30;2.85;;;;;;;17.02;23.73;99034.41;4975625;28;20054;-70
2022/05/21 05:16:00;;;;;;;6.88;2.60;;;;;;;17.02;23.74;99022.88;4991752;28;20132;-70
2022/05/21 05:18:30;;;;;;;8.88;2.80;;;;;;;17.15;23.87;99025.47;4975167;28;20069;-70
2022/05/21 05:20:59;;;;;;;4.22;2.00;;;;;;;17.03;23.05;99019.13;4975821;28;20034;-70
2022/05/21 05:23:27;;;;;;;9.75;3.15;;;;;;;17.19;23.67;99015.97;4975762;28;20050;-70
2022/05/21 05:25:53;;;;;;;7.78;3.00;;;;;;;16.98;23.91;98974.19;4991315;28;20045;-70
2022/05/21 05:28:21;;;;;;;8.27;2.97;;;;;;;17.58;23.93;99007.69;4959261;28;20423;-70
2022/05/21 05:30:47;;;;;;;5.25;2.45;;;;;;;17.32;23.69;99002.47;4959580;28;20066;-69
2022/05/21 05:33:14;;;;;;;7.22;2.70;;;;;;;17.53;23.57;99000.28;4942991;28;20082;-70
2022/05/21 05:35:40;;;;;;;6.88;2.67;;;;;;;17.59;23.74;99003.97;4991188;28;20050;-70
2022/05/21 05:38:10;;;;;;;7.75;2.97;;;;;;;17.88;23.90;99003.31;4958570;28;20459;-70
2022/05/21 05:40:37;;;;;;;9.57;3.03;;;;;;;18.01;23.66;99003.19;4958733;28;20042;-70
2022/05/21 05:43:03;;;;;;;9.07;2.75;;;;;;;18.05;23.44;98996.34;4990968;28;20509;-70
2022/05/21 05:45:29;;;;;;;8.07;3.30;;;;;;;18.11;23.38;98995.47;4958580;28;20140;-70
2022/05/21 05:47:54;;;;;;;6.80;3.65;;;;;;;18.20;23.65;98988.75;4958491;28;20042;-70
2022/05/21 05:50:21;;;;;;;7.40;3.20;;;;;;;18.40;23.26;98986.72;4974626;28;20601;-70
2022/05/21 05:52:46;;;;;;;8.77;2.50;;;;;;;18.21;22.13;98979.63;4974574;28;20151;-70
2022/05/21 05:55:12;;;;;;;5.65;2.40;;;;;;;18.38;22.44;98981.56;4990438;28;20575;-71
2022/05/21 05:57:39;;;;;;;7.88;2.40;;;;;;;18.48;22.31;98986.41;4990484;28;20047;-70
2022/05/21 06:00:06;;;;;;;10.75;2.80;;;;;;;18.68;22.49;98978.09;4958806;28;20496;-70
2022/05/21 06:05:22;;;;;;;4.45;2.50;;;;;;;18.98;22.14;98946.66;4973887;28;20128;-70
2022/05/21 06:07:54;;;;;;;5.38;2.50;;;;;;;19.06;21.90;98959.78;4990687;28;20058;-70
2022/05/21 06:10:23;;;;;;;7.78;2.33;;;;;;;19.10;21.81;98936.75;4990586;28;20050;-70
2022/05/21 06:12:49;;;;;;;3.85;2.10;;;;;;;19.23;21.43;98958.09;4974579;28;20050;-70
2022/05/21 06:15:15;;;;;;;12.35;2.50;;;;;;;19.45;20.82;98953.88;4974146;28;20400;-70
2022/05/21 06:17:41;;;;;;;6.18;2.08;;;;;;;19.49;21.25;98953.16;4958327;28;20049;-70
2022/05/21 06:20:10;;;;;;;6.35;1.98;;;;;;;19.52;20.96;98941.94;4974222;28;20050;-70
2022/05/21 06:22:36;;;;;;;7.97;2.20;;;;;;;19.72;20.79;98955.91;4958659;28;20042;-69
2022/05/21 06:25:02;;;;;;;5.75;2.20;;;;;;;19.76;20.03;98953.53;4958429;28;20054;-70
2022/05/21 06:27:29;;;;;;;5.07;1.98;;;;;;;19.64;19.42;98933.84;4990610;28;20109;-70
2022/05/21 06:29:56;;;;;;;8.27;2.10;;;;;;;19.76;19.68;98937.38;4974158;28;20042;-70
2022/05/21 06:32:21;;;;;;;6.72;2.22;;;;;;;20.00;19.32;98942.53;4958179;28;20531;-69
2022/05/21 06:34:47;;;;;;;4.13;2.00;;;;;;;20.19;19.13;98937.88;4941984;28;20045;-70
2022/05/21 06:37:13;;;;;;;3.97;2.17;;;;;;;20.34;19.04;98943.59;4957788;28;20427;-70
2022/05/21 06:39:40;;;;;;;4.10;2.03;;;;;;;20.66;18.94;98927.81;4973883;28;20117;-70
2022/05/21 06:42:06;;;;;;;9.82;2.00;;;;;;;20.96;18.54;98928.41;4974185;28;20034;-69
2022/05/21 06:44:32;;;;;;;8.43;1.90;;;;;;;20.88;18.08;98918.00;4957924;28;20116;-70
2022/05/21 06:46:59;;;;;;;9.23;2.08;;;;;;;21.18;17.97;98905.88;4942484;28;20042;-70
2022/05/21 06:49:27;;;;;;;5.10;1.92;;;;;;;21.40;17.82;98919.50;4974577;28;20177;-70
2022/05/21 06:51:54;;;;;;;5.78;2.38;;;;;;;21.43;18.05;98910.91;4974748;28;20185;-70
2022/05/21 06:54:21;;;;;;;12.73;2.05;;;;;;;21.49;17.78;98908.06;4990764;28;20368;-70
2022/05/21 06:56:47;;;;;;;14.93;2.20;;;;;;;21.30;17.75;98908.50;4973893;28;20042;-70
2022/05/21 06:59:13;;;;;;;4.50;1.60;;;;;;;21.20;17.66;98900.25;4941677;28;20092;-70
2022/05/21 07:01:41;;;;;;;7.57;1.67;;;;;;;21.40;17.01;98895.19;4957547;28;20042;-70
2022/05/21 07:04:07;;;;;;;8.48;2.58;;;;;;;21.20;16.35;98892.13;4958104;28;20046;-70
2022/05/21 07:09:21;;;;;;;5.38;1.55;;;;;;;21.67;16.10;98896.97;4959878;28;20054;-70
2022/05/21 07:11:55;;;;;;;5.47;1.70;;;;;;;21.82;16.06;98888.28;4957430;28;20128;-70
2022/05/21 07:14:20;;;;;;;4.70;1.75;;;;;;;22.20;15.85;98892.91;4989722;28;20085;-70
2022/05/21 07:16:48;;;;;;;4.80;1.63;;;;;;;22.77;15.68;98886.06;4977155;28;20050;-70
2022/05/21 07:19:14;;;;;;;5.78;1.85;;;;;;;23.44;14.91;98881.00;4961164;28;20057;-70
2022/05/21 07:21:39;;;;;;;8.80;1.80;;;;;;;24.11;14.29;98896.44;4961387;28;20042;-70
2022/05/21 07:24:10;;;;;;;4.07;1.60;;;;;;;24.63;13.42;98883.63;4977809;28;20057;-70
2022/05/21 07:26:36;;;;;;;4.45;1.50;;;;;;;24.71;13.77;98874.19;4961415;28;20146;-70
2022/05/21 07:29:01;;;;;;;5.38;1.60;;;;;;;24.70;13.42;98850.81;4945762;28;20066;-70
2022/05/21 07:31:27;;;;;;;4.68;2.22;;;;;;;25.59;13.06;98871.03;4945445;28;20053;-70
2022/05/21 07:33:53;;;;;;;4.93;1.75;;;;;;;27.81;11.59;98847.88;4961324;28;20042;-70
2022/05/21 07:36:19;;;;;;;2.90;1.70;;;;;;;30.65;9.64;98864.78;4961077;28;20042;-70
2022/05/21 07:38:45;;;;;;;2.28;1.50;;;;;;;33.66;7.76;98863.97;4977153;28;20069;-70
2022/05/21 07:41:11;;;;;;;3.55;1.50;;;;;;;36.02;6.24;98865.88;4977382;28;20534;-71
2022/05/21 07:43:37;;;;;;;3.45;1.30;;;;;;;38.18;5.05;98854.34;4961264;28;20046;-71
2022/05/21 07:46:03;;;;;;;4.00;2.00;;;;;;;38.63;4.58;98870.53;4993247;28;20078;-71
2022/05/21 07:48:31;;;;;;;2.55;1.38;;;;;;;37.22;4.62;98860.34;4944677;28;20042;-72
2022/05/21 07:51:00;;;;;;;;;;;;;;;35.77;5.22;98866.97;4977838;28;20043;-71
2022/05/21 07:53:28;;;;;;;3.35;1.60;;;;;;;32.53;7.37;98850.47;4993387;28;19921;-71
2022/05/21 07:55:55;;;;;;;3.05;1.70;;;;;;;32.31;7.50;98836.78;4961453;28;20043;-70
2022/05/21 07:58:23;;;;;;;3.35;1.50;;;;;;;33.42;7.09;98844.41;4977419;28;20101;-71
2022/05/21 08:00:51;;;;;;;5.20;1.80;;;;;;;34.69;6.18;98845.91;4993216;28;20061;-70
2022/05/21 08:03:17;;;;;;;3.75;1.60;;;;;;;36.59;5.05;98822.38;4993039;28;20038;-71
2022/05/21 08:05:43;;;;;;;5.72;1.60;;;;;;;38.82;4.42;98840.03;4992770;28;20050;-72
2022/05/21 08:08:10;;;;;;;5.43;1.60;;;;;;;39.70;3.70;98831.63;4992673;28;20046;-72
2022/05/21 08:10:39;;;;;;;3.55;2.92;;;;;;;39.82;3.13;98816.72;4976903;28;20096;-71
2022/05/21 08:13:06;;;;;;;3.58;1.42;;;;;;;40.57;3.36;98825.97;4960644;28;20046;-71
2022/05/21 08:15:31;;;;;;;5.13;1.20;;;;;;;41.38;2.72;98825.13;4960475;28;20415;-71
2022/05/21 08:18:00;;;;;;;4.75;1.85;;;;;;;42.45;2.49;98820.25;4992933;28;20053;-71
2022/05/21 08:20:27;;;;;;;1.97;1.77;;;;;;;43.29;1.95;98785.63;4977075;28;20046;-71
2022/05/21 08:28:22;;;;;;;6.03;1.45;;;;;;;38.94;3.22;98800.22;4977569;28;20042;-71
2022/05/21 08:30:48;;;;;;;3.97;1.38;;;;;;;40.27;3.17;98797.28;4960429;28;20053;-71
2022/05/21 08:33:15;;;;;;;3.45;1.40;;;;;;;42.35;2.17;98793.03;4943818;28;20026;-71
2022/05/21 08:35:41;;;;;;;2.92;1.30;;;;;;;44.02;1.62;98791.38;4992166;28;20133;-71
2022/05/21 08:38:09;;;;;;;4.35;1.20;;;;;;;45.30;1.23;98782.31;4992113;28;20121;-72
2022/05/21 08:40:45;;;;;;;4.32;1.15;;;;;;;46.33;0.32;98785.22;4975726;28;20050;-71
2022/05/21 08:43:20;;;;;;;4.70;1.20;;;;;;;47.52;0.25;98790.28;4993165;28;20045;-71
2022/05/21 08:46:07;;;;;;;6.03;1.40;;;;;;;46.36;0.79;98781.59;4943708;28;20069;-71
2022/05/21 08:48:33;;;;;;;3.15;1.20;;;;;;;46.07;0.78;98793.03;4975908;28;20046;-71
2022/05/21 08:50:59;;;;;;;6.28;1.40;;;;;;;44.98;0.95;98792.06;4975873;28;20451;-71
2022/05/21 08:53:28;;;;;;;3.15;1.23;;;;;;;43.97;1.18;98774.97;4975427;28;20150;-71
2022/05/21 08:55:57;;;;;;;1.80;1.13;;;;;;;43.84;1.38;98768.13;4959812;28;20069;-71
2022/05/21 08:58:40;;;;;;;1.58;1.02;;;;;;;45.10;1.09;98760.78;4975979;28;20053;-71
2022/05/21 09:01:09;;;;;;;5.15;1.20;;;;;;;46.35;0.57;98741.44;4992227;28;20042;-72
2022/05/21 09:03:38;;;;;;;5.70;1.20;;;;;;;44.69;1.12;98732.50;4991792;28;20070;-71
2022/05/21 09:06:07;;;;;;;5.00;1.20;;;;;;;43.96;1.17;98744.59;4976181;28;20441;-71
2022/05/21 09:08:47;;;;;;;6.32;1.55;;;;;;;44.63;1.26;98725.69;4959700;28;20153;-72
2022/05/21 09:11:20;;;;;;;5.10;1.27;;;;;;;46.49;0.66;98734.91;4975491;28;20042;-71
2022/05/21 09:13:54;;;;;;;3.85;1.20;;;;;;;47.86;0.26;98738.69;4992719;28;20042;-71
2022/05/21 09:19:06;;;;;;;7.80;1.23;;;;;;;49.25;0.00;98723.16;4991177;28;20133;-71
2022/05/21 09:21:34;;;;;;;3.22;1.20;;;;;;;49.98;0.00;98742.41;4991534;28;20073;-72
2022/05/21 09:24:02;;;;;;;10.13;1.02;;;;;;;50.43;0.00;98734.78;4959262;28;20074;-72
2022/05/21 09:26:31;;;;;;;3.65;1.00;;;;;;;50.89;0.00;98689.00;5007376;28;20065;-71
2022/05/21 09:29:18;;;;;;;1.98;1.27;;;;;;;50.69;0.00;98732.88;4991153;28;20161;-72
2022/05/21 09:31:44;;;;;;;2.17;1.30;;;;;;;47.67;0.00;98712.09;4975268;28;20460;-72
2022/05/21 09:34:31;;;;;;;3.88;1.55;;;;;;;44.26;0.96;98712.19;4974831;28;20141;-72
2022/05/21 09:36:59;;;;;;;1.98;1.20;;;;;;;45.60;0.69;98694.75;4942501;28;20440;-72
2022/05/21 09:39:39;;;;;;;12.07;1.20;;;;;;;46.56;0.45;98706.75;4958849;28;20038;-72
2022/05/21 09:42:09;;;;;;;5.47;1.70;;;;;;;47.26;0.59;98703.84;4975232;28;20042;-72
2022/05/21 09:47:29;;;;;;;6.85;1.48;;;;;;;49.16;0.00;98697.56;4977072;28;20049;-72
2022/05/21 09:50:08;;;;;;;3.22;1.35;;;;;;;50.24;0.00;98685.59;4990733;28;20042;-72
2022/05/21 09:52:35;;;;;;;3.30;1.20;;;;;;;50.81;0.00;98689.69;4958707;28;20038;-72
2022/05/21 09:55:03;;;;;;;10.32;1.33;;;;;;;51.23;0.00;98683.53;4974546;28;20151;-72
2022/05/21 09:57:38;;;;;;;3.80;1.10;;;;;;;49.60;0.00;98699.75;4991730;28;20050;-72
2022/05/21 10:00:19;;;;;;;2.90;1.20;;;;;;;46.92;0.21;98649.66;4990855;28;20108;-72
2022/05/21 10:02:47;;;;;;;1.77;1.15;;;;;;;46.49;0.38;98665.47;4958206;28;20088;-72
2022/05/21 10:05:19;;;;;;;4.90;1.25;;;;;;;47.48;0.00;98673.34;4991631;28;20091;-71
2022/05/21 10:11:05;;;;;;;5.95;1.45;;;;;;;42.17;1.77;98654.50;4990297;28;20050;-72
2022/05/21 10:13:33;;;;;;;3.00;1.20;;;;;;;41.33;1.92;98658.22;4959831;28;20046;-72
2022/05/21 10:16:23;;;;;;;2.80;1.40;;;;;;;42.58;1.83;98645.56;4973856;28;20053;-71
2022/05/21 10:19:27;;;;;;;3.17;1.05;;;;;;;45.73;0.65;98648.16;5006066;28;20047;-72
2022/05/21 10:22:00;;;;;;;3.60;1.00;;;;;;;47.10;0.30;98644.56;4973766;28;20046;-71
2022/05/21 10:25:00;;;;;;;5.43;1.50;;;;;;;48.58;0.00;98644.81;4973841;28;20153;-72
2022/05/21 10:27:44;;;;;;;3.92;1.10;;;;;;;48.96;0.00;98638.31;4973568;28;20076;-72
2022/05/21 10:30:25;;;;;;;4.43;1.30;;;;;;;48.82;0.00;98632.22;4957635;28;20046;-71
2022/05/21 10:33:04;;;;;;;3.15;1.50;;;;;;;48.90;0.00;98634.44;4973686;28;20060;-72
2022/05/21 10:35:49;;;;;;;3.33;1.50;;;;;;;48.80;0.00;98595.22;4989857;28;20057;-72
2022/05/21 10:38:27;;;;;;;5.50;1.20;;;;;;;49.54;0.00;98627.31;4957619;28;20077;-72
2022/05/21 10:40:54;;;;;;;1.55;1.08;;;;;;;49.12;0.00;98626.31;5006206;28;20053;-72
2022/05/21 10:43:35;;;;;;;3.20;1.10;;;;;;;48.46;0.00;98620.09;4989702;28;20056;-72
2022/05/21 10:46:28;;;;;;;5.55;0.90;;;;;;;48.32;0.00;98614.75;4973522;28;20046;-72
2022/05/21 10:49:30;;;;;;;7.25;1.98;;;;;;;48.19;0.00;98605.34;4989549;28;20061;-72
2022/05/21 10:52:25;;;;;;;6.15;1.30;;;;;;;48.51;0.00;98611.13;4990183;28;20065;-71
2022/05/21 10:54:50;;;;;;;3.30;0.90;;;;;;;48.32;0.00;98611.94;4952299;28;20145;-71
2022/05/21 10:57:22;;;;;;;3.00;1.00;;;;;;;48.18;0.00;98589.69;4957546;28;20042;-72
2022/05/21 11:00:11;;;;;;;1.67;1.08;;;;;;;47.97;0.00;98609.81;4957549;28;20077;-73
2022/05/21 11:02:50;;;;;;;1.02;0.80;;;;;;;46.23;0.36;98607.16;4951337;28;20057;-72
2022/05/21 11:05:40;;;;;;;2.17;1.00;;;;;;;45.15;0.57;98600.53;4957450;28;20050;-71
2022/05/21 11:08:07;;;;;;;2.65;1.00;;;;;;;41.95;1.61;98597.00;4990232;28;20385;-71
2022/05/21 11:10:57;;;;;;;5.10;1.13;;;;;;;40.41;2.45;98583.19;4973545;28;20054;-71
2022/05/21 11:13:32;;;;;;;1.80;1.10;;;;;;;38.33;3.39;98589.16;4989575;28;20520;-71
2022/05/21 11:16:03;;;;;;;3.58;1.10;;;;;;;35.68;4.10;98580.50;4989649;28;20058;-71
2022/05/21 11:18:39;;;;;;;2.60;1.20;;;;;;;33.91;5.28;98591.16;4973380;28;20164;-72
2022/05/21 11:21:11;;;;;;;3.78;1.40;;;;;;;32.09;6.15;98581.31;4973356;28;20581;-71
2022/05/21 11:23:55;;;;;;;4.45;1.48;;;;;;;31.07;6.56;98578.31;4973841;28;20068;-71
2022/05/21 11:26:24;;;;;;;5.43;1.10;;;;;;;29.98;7.28;98558.88;4989536;28;20157;-71
2022/05/21 11:29:07;;;;;;;5.63;1.30;;;;;;;29.37;7.66;98548.44;4957199;28;20053;-71
2022/05/21 11:37:25;;;;;;;5.60;1.50;;;;;;;30.12;7.87;98547.88;5005710;28;20048;-71
2022/05/21 11:39:57;;;;;;;9.63;1.42;;;;;;;30.21;7.83;98543.28;4989554;28;20120;-71
2022/05/21 11:42:49;;;;;;;1.90;1.27;;;;;;;29.97;8.28;98543.56;4957255;28;20042;-71
2022/05/21 11:45:22;;;;;;;6.57;1.30;;;;;;;29.61;8.74;98545.47;4973575;28;20129;-71
2022/05/21 11:47:54;;;;;;;3.75;1.20;;;;;;;28.16;8.87;98537.31;4942002;28;20141;-71
2022/05/21 11:50:30;;;;;;;9.02;1.90;;;;;;;27.43;9.69;98529.63;4957375;28;20133;-71
2022/05/21 11:53:33;;;;;;;5.85;1.20;;;;;;;26.92;10.10;98525.91;4941353;28;20038;-71
2022/05/21 11:56:03;;;;;;;2.90;1.40;;;;;;;26.55;10.59;98519.47;4938178;28;20482;-70
2022/05/21 11:58:57;;;;;;;8.07;1.35;;;;;;;26.46;10.83;98525.53;4956938;28;20597;-71
2022/05/21 12:01:38;;;;;;;3.95;1.20;;;;;;;26.59;10.75;98536.84;4956555;28;20096;-70
2022/05/21 12:04:06;;;;;;;5.10;1.73;;;;;;;25.82;11.38;98519.53;4976316;28;20104;-71
2022/05/21 12:07:02;;;;;;;3.17;1.20;;;;;;;25.73;11.62;98525.84;4976571;28;20046;-71
2022/05/21 12:09:31;;;;;;;2.75;1.25;;;;;;;25.40;11.85;98513.81;4992464;28;20447;-71
2022/05/21 12:12:21;;;;;;;2.95;1.40;;;;;;;25.50;11.23;98521.09;4960045;28;20563;-71
2022/05/21 12:14:51;;;;;;;4.43;1.30;;;;;;;25.12;11.83;98519.94;4954031;28;20507;-70
2022/05/21 12:18:04;;;;;;;1.98;1.05;;;;;;;25.02;11.74;98513.72;4992362;28;20065;-71
2022/05/21 12:20:47;;;;;;;5.25;1.20;;;;;;;24.72;11.71;98517.34;4905371;29;20043;-71
2022/05/21 12:23:40;;;;;;;1.80;1.00;;;;;;;24.72;11.96;98530.94;4904841;29;20501;-71